Flight Track Log - Related Links

Times and Time Zones

All times are in EST time to prevent confusion due to time zone crossing. See the SLI2121 flight status page for this flight to view local times or setup timezone preferences in your user account.

Time Position Orientation Groundspeed Altitude Reporting Facility
EST Latitude Longitude Course Direction KTS MPH feet Rate Location/Type
Tue 08:31:00 PM 23.7805 -109.7433 117° Southeast  Level Estimated
Tue 08:32:00 PM 23.7315 -109.6404 117° Southeast  Level Estimated
Tue 08:33:00 PM 23.6825 -109.5375 117° Southeast  Level Estimated
Tue 08:34:00 PM 23.6334 -109.4348 118° Southeast  Level Estimated
Tue 08:35:00 PM 23.5842 -109.3321 118° Southeast  Level Estimated
Tue 08:36:00 PM 23.5350 -109.2294 118° Southeast  Level Estimated
Tue 08:37:00 PM 23.4857 -109.1269 118° Southeast  Level Estimated
Tue 08:38:00 PM 23.4364 -109.0245 118° Southeast  Level Estimated
Tue 08:39:00 PM 23.3870 -108.9221 118° Southeast  Level Estimated
Tue 08:40:00 PM 23.3375 -108.8197 118° Southeast  Level Estimated
Tue 08:41:00 PM 23.2879 -108.7175 118° Southeast  Level Estimated
Tue 08:42:00 PM 23.2383 -108.6154 118° Southeast  Level Estimated
Tue 08:43:00 PM 23.1886 -108.5133 118° Southeast  Level Estimated
Tue 08:44:00 PM 23.1389 -108.4113 118° Southeast  Level Estimated
Tue 08:45:00 PM 23.0891 -108.3093 118° Southeast  Level Estimated
Tue 08:46:00 PM 23.0392 -108.2075 118° Southeast  Level Estimated
Tue 08:47:00 PM 22.9892 -108.1057 118° Southeast  Level Estimated
Tue 08:48:00 PM 22.9392 -108.0040 118° Southeast  Level Estimated
Tue 08:49:00 PM 22.8891 -107.9024 118° Southeast  Level Estimated
Tue 08:50:00 PM 22.8390 -107.8008 118° Southeast  Level Estimated
Tue 08:51:00 PM 22.7888 -107.6994 118° Southeast  Level Estimated
Tue 08:52:00 PM 22.7385 -107.5980 118° Southeast  Level Estimated
Tue 08:53:00 PM 22.6882 -107.4966 118° Southeast  Level Estimated
Tue 08:54:00 PM 22.6378 -107.3954 118° Southeast  Level Estimated
Tue 08:55:00 PM 22.5873 -107.2942 118° Southeast  Level Estimated
Tue 08:56:00 PM 22.5368 -107.1931 118° Southeast  Level Estimated
Tue 08:57:00 PM 22.4862 -107.0921 118° Southeast  Level Estimated
Tue 08:58:00 PM 22.4356 -106.9911 118° Southeast  Level Estimated
Tue 08:59:00 PM 22.3849 -106.8902 119° Southeast  Level Estimated
Tue 09:00:00 PM 22.3341 -106.7894 119° Southeast  Level Estimated
Tue 09:01:00 PM 22.2832 -106.6887 119° Southeast  Level Estimated
Tue 09:02:00 PM 22.2323 -106.5880 119° Southeast  Level Estimated
Tue 09:03:00 PM 22.1814 -106.4874 119° Southeast  Level Estimated
Tue 09:04:00 PM 22.1304 -106.3869 119° Southeast  Level Estimated
Tue 09:05:00 PM 22.0793 -106.2865 119° Southeast  Level Estimated
Tue 09:06:00 PM 22.0281 -106.1861 119° Southeast  Level Estimated
Tue 09:07:00 PM 21.9769 -106.0858 119° Southeast  Level Estimated
Tue 09:08:00 PM 21.9256 -105.9856 119° Southeast  Level Estimated
Tue 09:09:00 PM 21.8743 -105.8854 119° Southeast  Level Estimated
Tue 09:10:00 PM 21.8229 -105.7853 119° Southeast  Level Estimated
Tue 09:11:00 PM 21.7715 -105.6853 119° Southeast  Level Estimated
Tue 09:12:00 PM 21.7200 -105.5854 119° Southeast  Level Estimated
Tue 09:13:00 PM 21.6684 -105.4855 119° Southeast  Level Estimated
Tue 09:14:00 PM 21.6168 -105.3857 119° Southeast  Level Estimated
Tue 09:15:00 PM 21.5651 -105.2860 119° Southeast  Level Estimated
Tue 09:16:00 PM 21.5133 -105.1863 119° Southeast  Level Estimated
Tue 09:17:00 PM 21.4615 -105.0867 119° Southeast  Level Estimated
Tue 09:18:00 PM 21.4097 -104.9872 119° Southeast  Level Estimated
Tue 09:19:00 PM 21.3577 -104.8878 119° Southeast  Level Estimated
Tue 09:20:00 PM 21.3058 -104.7884 119° Southeast  Level Estimated
Tue 09:21:00 PM 21.2537 -104.6891 119° Southeast  Level Estimated
Tue 09:22:00 PM 21.2016 -104.5899 119° Southeast  Level Estimated
Tue 09:23:00 PM 21.1495 -104.4907 119° Southeast  Level Estimated
Tue 09:24:00 PM 21.0972 -104.3916 119° Southeast  Level Estimated
Tue 09:25:00 PM 21.0450 -104.2926 119° Southeast  Level Estimated
Tue 09:26:00 PM 20.9926 -104.1937 120° Southeast  Level Estimated
Tue 09:27:00 PM 20.9403 -104.0948 120° Southeast  Level Estimated
Tue 09:28:00 PM 20.8878 -103.9960 120° Southeast  Level Estimated
Tue 09:29:00 PM 20.8353 -103.8972 120° Southeast  Level Estimated
Tue 09:30:00 PM 20.7828 -103.7986 120° Southeast  Level Estimated
Tue 09:31:00 PM 20.7302 -103.7000 120° Southeast  Level Estimated
Tue 09:32:00 PM 20.6775 -103.6014 120° Southeast  Level Estimated
Tue 09:33:00 PM 20.6248 -103.5030 120° Southeast  Level Estimated
Tue 09:34:00 PM 20.5720 -103.4045 120° Southeast  Level Estimated
Tue 09:35:00 PM 20.5218 -103.3112 120° Southeast  Level Estimated
Tue 09:36:00 PM 20.5218 -103.3112 90° East  Level Estimated
Tue 09:37:00 PM 20.5218 -103.3112 90° East  Level Estimated
Tue 09:38:00 PM 20.5218 -103.3112 90° East  Level Estimated
Tue 09:39:00 PM 20.5218 -103.3112 90° East  Level Estimated
Tue 09:40:00 PM 20.5218 -103.3112 90° East  Level Estimated
Tue 09:41:00 PM 20.5218 -103.3112 90° East  Level Estimated
Tue 09:42:00 PM 20.5218 -103.3112 90° East  Level Estimated

Login

Don't have an account? Register now (free) for customized features, flight alerts, and more!